In Rescue
 
Open Full Screen Window  High Contrast Mode
Wind Gusting 18 knots
11
October 25, 2021 4:47 PM EDT
Weather Information
Wind Direction
  020 °
Wind Speed
  11 kt (13 mph)
Wind Gust
  18 kt (21 mph)
Altimeter
29.94 in
Visibility
10 SM
Temperature
10° C
50° F
Dewpoint
03° C
37° F
Humidity
62%
Sky Condition
Overcast @ 3,600 ft
VFR

METAR KFFX 252047Z AUTO 02011G18KT 10SM OVC036 10/03 A2994 RMK AO2 T01030032

FAA Disclaimer: The data displayed is for advisory purposes only and is not to be used for flight planning or operations.